Jonancy, Kentucky
Current Conditions -  °F | °C
As of 11:35 AM on Tuesday 27 Jan 2015 (Local Time) from KPBX Reporting Station
Broken Clouds Broken Clouds  
Wind Chill: 20°   Ceiling: 6000
Heat Index: 26°   Visibility: 10mi
Dew Point: 18°   Wind: 5mph
Humidity: 71%   Direction: 340°NNW
Pressure: 29.97"   Gusts: NA
Location:  37.32°N, 82.58°W
Report Text: KPBX 271635Z AUTO 34004KT 10SM SCT020 BKN060 M03/M08 A2997 RMK AO2 T10341079
Loading
Personal Weather Stations






























Interactive Weather Map New forecast layout! Learn more

10-Day Weather Forecast

Advertisements
Track Severe Weather on mobile